Brandy Bar — WDF7323 — position and weather

sailwx.info

Track history (hours):
 
Tides and Currents Weather Stations Pressure Air Temp Water Temp Dewpoint Dewpoint Depression Visibility Wind Speed Wind Dir Waves Ship Positions

Brandy Bar

Owner: Brandy Bar, Tiburon, CA. More information available from US FCC via Universal Licensing System and Coast Guard Vessel Documentation Center.

Last reported at 2017-Dec-11 11:01 UTC. Time now 2017-Dec-13 01:50 UTC.
Position N 37°35' W 122°19'.

Type: Towing. MMSI: 367483310.

Date/timePositionNaut miles runAvg speedWind from/ knotsBaromVisibWave heightAir tempDewpointWater temp
2017-Dec-11 11:01N 37°35' W 122°19'0 0.7
2017-Dec-11 11:00N 37°35' W 122°19'1 1.6
2017-Dec-11 10:30N 37°36' W 122°19'2 4.9
2017-Dec-11 10:00N 37°39' W 122°20'3 5.3
2017-Dec-11 09:30N 37°41' W 122°21'3 5.1
2017-Dec-11 09:01N 37°44' W 122°21'2 5.0
2017-Dec-11 08:30N 37°46' W 122°22'2 4.6
2017-Dec-11 08:00N 37°48' W 122°23'2 3.9
2017-Dec-11 07:30N 37°49' W 122°25'2 3.6
2017-Dec-11 07:00N 37°48' W 122°24'3 5.0
2017-Dec-11 06:31N 37°46' W 122°22'3 5.2
2017-Dec-11 06:01N 37°44' W 122°21'2 4.9
2017-Dec-11 05:30N 37°41' W 122°20'2 4.7
2017-Dec-11 05:00N 37°39' W 122°19'2 4.1
2017-Dec-11 04:31N 37°37' W 122°19'1 2.6
2017-Dec-11 04:00N 37°36' W 122°19'0 0.0
2017-Dec-10 20:29N 37°35' W 122°19'0 0.0
2017-Dec-10 09:59N 37°35' W 122°19'0 0.9
2017-Dec-10 09:30N 37°36' W 122°19'2 4.7
2017-Dec-10 09:00N 37°38' W 122°19'3 5.2
2017-Dec-10 08:30N 37°41' W 122°20'3 5.2
2017-Dec-10 08:01N 37°43' W 122°21'2 5.0
2017-Dec-10 07:31N 37°45' W 122°22'2 4.7
2017-Dec-10 07:01N 37°48' W 122°23'2 3.9
2017-Dec-10 06:30N 37°49' W 122°25'1 1.6
2017-Dec-10 06:00N 37°49' W 122°24'3 5.4
2017-Dec-10 05:30N 37°46' W 122°22'3 5.4
2017-Dec-10 05:01N 37°44' W 122°21'3 5.2
2017-Dec-10 04:30N 37°41' W 122°20'2 4.9
2017-Dec-10 04:01N 37°39' W 122°19'2 4.4
2017-Dec-10 03:31N 37°37' W 122°19'1 2.6
2017-Dec-10 03:01N 37°36' W 122°19'0 0.5
2017-Dec-10 02:31N 37°35' W 122°19'0 0.1
2017-Dec-10 02:01N 37°35' W 122°19'0 0.0
2017-Dec-10 01:31N 37°35' W 122°19'0 0.0
2017-Dec-09 08:52N 37°35' W 122°19'0 0.2
2017-Dec-09 08:30N 37°35' W 122°19'1 2.9
2017-Dec-09 08:00N 37°37' W 122°19'2 4.8
2017-Dec-09 07:30N 37°39' W 122°20'2 4.8
2017-Dec-09 07:01N 37°41' W 122°21'2 4.7
2017-Dec-09 06:30N 37°44' W 122°21'2 4.5
2017-Dec-09 06:00N 37°46' W 122°22'2 4.1
2017-Dec-09 05:30N 37°48' W 122°23'2 3.3
2017-Dec-09 05:00N 37°49' W 122°25'1 1.5
2017-Dec-09 04:30N 37°49' W 122°25'3 5.2
2017-Dec-09 04:00N 37°48' W 122°23'3 5.5
2017-Dec-09 03:30N 37°45' W 122°22'3 5.5
2017-Dec-09 03:00N 37°43' W 122°20'2 4.9
2017-Dec-09 02:30N 37°40' W 122°19'2 4.7
2017-Dec-09 02:00N 37°38' W 122°19'2 3.6
2017-Dec-09 01:30N 37°36' W 122°19'1 1.4
2017-Dec-09 01:00N 37°35' W 122°19'0 0.1
2017-Dec-09 00:30N 37°35' W 122°19'0 0.0
2017-Dec-09 00:00N 37°35' W 122°19'0 0.0
2017-Dec-08 07:52N 37°35' W 122°19'0 0.2
2017-Dec-08 07:30N 37°35' W 122°19'2 4.1
2017-Dec-08 07:00N 37°38' W 122°19'3 5.1
2017-Dec-08 06:31N 37°40' W 122°20'2 4.9
2017-Dec-08 06:01N 37°42' W 122°21'2 4.7
2017-Dec-08 05:30N 37°45' W 122°22'2 4.3
2017-Dec-08 05:01N 37°47' W 122°23'2 3.6
2017-Dec-08 04:30N 37°48' W 122°24'1 2.9
2017-Dec-08 04:00N 37°49' W 122°25'1 2.2
2017-Dec-08 03:30N 37°49' W 122°24'3 6.3
2017-Dec-08 03:00N 37°46' W 122°22'3 6.0
2017-Dec-08 02:30N 37°43' W 122°20'3 5.7
2017-Dec-08 02:00N 37°40' W 122°20'3 5.4
2017-Dec-08 01:31N 37°38' W 122°19'2 3.9
2017-Dec-08 01:01N 37°36' W 122°19'1 1.1
2017-Dec-08 00:31N 37°35' W 122°19'0 0.1
2017-Dec-08 00:01N 37°35' W 122°19'0 0.2
2017-Dec-07 23:30N 37°35' W 122°19'0 0.0
2017-Dec-07 01:13N 37°35' W 122°19'0 0.2
2017-Dec-07 01:00N 37°35' W 122°19'2 3.5
2017-Dec-07 00:30N 37°37' W 122°19'3 5.0
2017-Dec-07 00:00N 37°40' W 122°20'2 4.8
2017-Dec-06 23:30N 37°42' W 122°21'2 4.7
2017-Dec-06 23:00N 37°44' W 122°21'3 5.1
2017-Dec-06 22:30N 37°47' W 122°22'2 4.8
2017-Dec-06 22:00N 37°49' W 122°24'3 6.1
2017-Dec-06 21:30N 37°50' W 122°27'2 3.4
2017-Dec-06 21:00N 37°52' W 122°29'  
2017-Dec-02 02:50N 37°35' W 122°19'0 1.0
2017-Dec-02 02:30N 37°36' W 122°19'3 5.2
2017-Dec-02 02:00N 37°38' W 122°19'3 6.4
2017-Dec-02 01:31N 37°41' W 122°21'3 6.5
2017-Dec-02 01:01N 37°44' W 122°21'3 6.1
2017-Dec-02 00:30N 37°47' W 122°23'3 5.2
2017-Dec-02 00:00N 37°49' W 122°25'2 5.0
2017-Dec-01 23:31N 37°47' W 122°23'4 7.0
2017-Dec-01 23:00N 37°44' W 122°21'3 6.9
2017-Dec-01 22:30N 37°41' W 122°20'3 7.0
2017-Dec-01 22:01N 37°38' W 122°19'2 4.0
2017-Dec-01 21:30N 37°36' W 122°19'0 0.1
2017-Dec-01 21:00N 37°36' W 122°19'  
Track history (hours):
 
Tides and Currents Weather Stations Pressure Air Temp Water Temp Dewpoint Dewpoint Depression Visibility Wind Speed Wind Dir Waves Ship Positions

Brandy Bar

Owner: Brandy Bar, Tiburon, CA. More information available from US FCC via Universal Licensing System and Coast Guard Vessel Documentation Center.

Last reported at 2017-Dec-11 11:01 UTC. Time now 2017-Dec-13 01:50 UTC.
Position N 37°35' W 122°19'.

Type: Towing. MMSI: 367483310.

Date/timePositionNaut miles runAvg speedWind from/ knotsBaromVisibWave heightAir tempDewpointWater temp
2017-Dec-11 11:01N 37°35' W 122°19'0 0.7
2017-Dec-11 11:00N 37°35' W 122°19'1 1.6
2017-Dec-11 10:30N 37°36' W 122°19'2 4.9
2017-Dec-11 10:00N 37°39' W 122°20'3 5.3
2017-Dec-11 09:30N 37°41' W 122°21'3 5.1
2017-Dec-11 09:01N 37°44' W 122°21'2 5.0
2017-Dec-11 08:30N 37°46' W 122°22'2 4.6
2017-Dec-11 08:00N 37°48' W 122°23'2 3.9
2017-Dec-11 07:30N 37°49' W 122°25'2 3.6
2017-Dec-11 07:00N 37°48' W 122°24'3 5.0
2017-Dec-11 06:31N 37°46' W 122°22'3 5.2
2017-Dec-11 06:01N 37°44' W 122°21'2 4.9
2017-Dec-11 05:30N 37°41' W 122°20'2 4.7
2017-Dec-11 05:00N 37°39' W 122°19'2 4.1
2017-Dec-11 04:31N 37°37' W 122°19'1 2.6
2017-Dec-11 04:00N 37°36' W 122°19'0 0.0
2017-Dec-10 20:29N 37°35' W 122°19'0 0.0
2017-Dec-10 09:59N 37°35' W 122°19'0 0.9
2017-Dec-10 09:30N 37°36' W 122°19'2 4.7
2017-Dec-10 09:00N 37°38' W 122°19'3 5.2
2017-Dec-10 08:30N 37°41' W 122°20'3 5.2
2017-Dec-10 08:01N 37°43' W 122°21'2 5.0
2017-Dec-10 07:31N 37°45' W 122°22'2 4.7
2017-Dec-10 07:01N 37°48' W 122°23'2 3.9
2017-Dec-10 06:30N 37°49' W 122°25'1 1.6
2017-Dec-10 06:00N 37°49' W 122°24'3 5.4
2017-Dec-10 05:30N 37°46' W 122°22'3 5.4
2017-Dec-10 05:01N 37°44' W 122°21'3 5.2
2017-Dec-10 04:30N 37°41' W 122°20'2 4.9
2017-Dec-10 04:01N 37°39' W 122°19'2 4.4
2017-Dec-10 03:31N 37°37' W 122°19'1 2.6
2017-Dec-10 03:01N 37°36' W 122°19'0 0.5
2017-Dec-10 02:31N 37°35' W 122°19'0 0.1
2017-Dec-10 02:01N 37°35' W 122°19'0 0.0
2017-Dec-10 01:31N 37°35' W 122°19'0 0.0
2017-Dec-09 08:52N 37°35' W 122°19'0 0.2
2017-Dec-09 08:30N 37°35' W 122°19'1 2.9
2017-Dec-09 08:00N 37°37' W 122°19'2 4.8
2017-Dec-09 07:30N 37°39' W 122°20'2 4.8
2017-Dec-09 07:01N 37°41' W 122°21'2 4.7
2017-Dec-09 06:30N 37°44' W 122°21'2 4.5
2017-Dec-09 06:00N 37°46' W 122°22'2 4.1
2017-Dec-09 05:30N 37°48' W 122°23'2 3.3
2017-Dec-09 05:00N 37°49' W 122°25'1 1.5
2017-Dec-09 04:30N 37°49' W 122°25'3 5.2
2017-Dec-09 04:00N 37°48' W 122°23'3 5.5
2017-Dec-09 03:30N 37°45' W 122°22'3 5.5
2017-Dec-09 03:00N 37°43' W 122°20'2 4.9
2017-Dec-09 02:30N 37°40' W 122°19'2 4.7
2017-Dec-09 02:00N 37°38' W 122°19'2 3.6
2017-Dec-09 01:30N 37°36' W 122°19'1 1.4
2017-Dec-09 01:00N 37°35' W 122°19'0 0.1
2017-Dec-09 00:30N 37°35' W 122°19'0 0.0
2017-Dec-09 00:00N 37°35' W 122°19'0 0.0
2017-Dec-08 07:52N 37°35' W 122°19'0 0.2
2017-Dec-08 07:30N 37°35' W 122°19'2 4.1
2017-Dec-08 07:00N 37°38' W 122°19'3 5.1
2017-Dec-08 06:31N 37°40' W 122°20'2 4.9
2017-Dec-08 06:01N 37°42' W 122°21'2 4.7
2017-Dec-08 05:30N 37°45' W 122°22'2 4.3
2017-Dec-08 05:01N 37°47' W 122°23'2 3.6
2017-Dec-08 04:30N 37°48' W 122°24'1 2.9
2017-Dec-08 04:00N 37°49' W 122°25'1 2.2
2017-Dec-08 03:30N 37°49' W 122°24'3 6.3
2017-Dec-08 03:00N 37°46' W 122°22'3 6.0
2017-Dec-08 02:30N 37°43' W 122°20'3 5.7
2017-Dec-08 02:00N 37°40' W 122°20'3 5.4
2017-Dec-08 01:31N 37°38' W 122°19'2 3.9
2017-Dec-08 01:01N 37°36' W 122°19'1 1.1
2017-Dec-08 00:31N 37°35' W 122°19'0 0.1
2017-Dec-08 00:01N 37°35' W 122°19'0 0.2
2017-Dec-07 23:30N 37°35' W 122°19'0 0.0
2017-Dec-07 01:13N 37°35' W 122°19'0 0.2
2017-Dec-07 01:00N 37°35' W 122°19'2 3.5
2017-Dec-07 00:30N 37°37' W 122°19'3 5.0
2017-Dec-07 00:00N 37°40' W 122°20'2 4.8
2017-Dec-06 23:30N 37°42' W 122°21'2 4.7
2017-Dec-06 23:00N 37°44' W 122°21'3 5.1
2017-Dec-06 22:30N 37°47' W 122°22'2 4.8
2017-Dec-06 22:00N 37°49' W 122°24'3 6.1
2017-Dec-06 21:30N 37°50' W 122°27'2 3.4
2017-Dec-06 21:00N 37°52' W 122°29'  
2017-Dec-02 02:50N 37°35' W 122°19'0 1.0
2017-Dec-02 02:30N 37°36' W 122°19'3 5.2
2017-Dec-02 02:00N 37°38' W 122°19'3 6.4
2017-Dec-02 01:31N 37°41' W 122°21'3 6.5
2017-Dec-02 01:01N 37°44' W 122°21'3 6.1
2017-Dec-02 00:30N 37°47' W 122°23'3 5.2
2017-Dec-02 00:00N 37°49' W 122°25'2 5.0
2017-Dec-01 23:31N 37°47' W 122°23'4 7.0
2017-Dec-01 23:00N 37°44' W 122°21'3 6.9
2017-Dec-01 22:30N 37°41' W 122°20'3 7.0
2017-Dec-01 22:01N 37°38' W 122°19'2 4.0
2017-Dec-01 21:30N 37°36' W 122°19'0 0.1
2017-Dec-01 21:00N 37°36' W 122°19'  

Dump ship's entire track history